createdAt,value
2022-12-18T00:00:06.331Z,98419.12
2022-12-18T00:02:36.036Z,98421.53
2022-12-18T00:05:05.221Z,98427.12
2022-12-18T00:07:32.578Z,98428.61
2022-12-18T00:10:00.821Z,98435.22
2022-12-18T00:12:29.994Z,98445.52
2022-12-18T00:14:58.047Z,98452.39
2022-12-18T00:17:25.980Z,98458.39
2022-12-18T00:19:53.510Z,98461.29
2022-12-18T00:22:21.084Z,98469.80
2022-12-18T00:24:48.943Z,98473.05
2022-12-18T00:27:16.356Z,98478.05
2022-12-18T00:29:44.007Z,98483.86
2022-12-18T00:32:11.460Z,98479.47
2022-12-18T00:34:38.717Z,98486.64
2022-12-18T00:37:06.101Z,98484.03
2022-12-18T00:39:34.011Z,98483.27
2022-12-18T00:42:20.022Z,98487.60
2022-12-18T00:44:49.248Z,98497.19
2022-12-18T00:47:16.876Z,98498.04
2022-12-18T00:49:44.223Z,98497.55
2022-12-18T00:52:11.927Z,98507.98
2022-12-18T00:54:39.643Z,98512.81
2022-12-18T00:57:07.150Z,98520.75
2022-12-18T00:59:35.109Z,98515.95
2022-12-18T01:02:05.311Z,98515.95
2022-12-18T01:04:34.397Z,98514.23
2022-12-18T01:07:02.097Z,98509.86
2022-12-18T01:09:29.722Z,98516.27
2022-12-18T01:11:57.312Z,98518.59
2022-12-18T01:14:25.357Z,98519.28
2022-12-18T01:16:53.953Z,98519.28
2022-12-18T01:19:21.476Z,98525.59
2022-12-18T01:21:48.974Z,98529.31
2022-12-18T01:24:16.602Z,98530.87
2022-12-18T01:26:44.343Z,98530.87
2022-12-18T01:29:12.123Z,98534.88
2022-12-18T01:31:39.816Z,98542.34
2022-12-18T01:34:07.526Z,98548.24
2022-12-18T01:36:39.440Z,98550.59
2022-12-18T01:39:15.272Z,98555.70
2022-12-18T01:41:45.295Z,98553.79
2022-12-18T01:45:07.064Z,98557.80
2022-12-18T01:47:48.294Z,98563.06
2022-12-18T01:50:20.692Z,98562.98
2022-12-18T01:52:56.386Z,98562.88
2022-12-18T01:55:28.923Z,98563.80
2022-12-18T01:58:00.135Z,98572.89
2022-12-18T02:00:28.828Z,98575.84
2022-12-18T02:02:57.228Z,98581.49
2022-12-18T02:05:39.058Z,98573.88
2022-12-18T02:08:23.124Z,98578.08
2022-12-18T02:11:10.774Z,98576.94
2022-12-18T02:14:05.062Z,98579.00
2022-12-18T02:16:57.721Z,98585.16
2022-12-18T02:19:47.923Z,98591.83
2022-12-18T02:22:53.789Z,98588.30
2022-12-18T02:25:43.171Z,98596.56
2022-12-18T02:28:18.850Z,98598.31
2022-12-18T02:30:53.644Z,98606.70
2022-12-18T02:33:26.888Z,98612.30
2022-12-18T02:36:00.170Z,98617.64
2022-12-18T02:38:31.183Z,98605.56
2022-12-18T02:41:08.468Z,98603.08
2022-12-18T02:43:38.113Z,98611.75
2022-12-18T02:46:39.790Z,98604.12
2022-12-18T02:49:21.262Z,98608.56
2022-12-18T02:52:24.665Z,98621.56
2022-12-18T02:55:21.821Z,98624.14
2022-12-18T02:58:02.844Z,98624.14
2022-12-18T03:00:46.532Z,98629.23
2022-12-18T03:03:22.834Z,98632.14
2022-12-18T03:05:54.674Z,98639.24
2022-12-18T03:08:34.078Z,98645.26
2022-12-18T03:11:07.939Z,98651.19
2022-12-18T03:13:50.064Z,98654.59
2022-12-18T03:16:25.443Z,98664.81
2022-12-18T03:18:57.816Z,98671.48
2022-12-18T03:21:37.215Z,98666.95
2022-12-18T03:24:08.749Z,98668.81
2022-12-18T03:26:41.832Z,98670.85
2022-12-18T03:29:23.508Z,98677.63
2022-12-18T03:31:55.943Z,98681.70
2022-12-18T03:34:30.105Z,98686.83
2022-12-18T03:37:05.045Z,98685.77
2022-12-18T03:39:37.150Z,98693.13
2022-12-18T03:42:19.752Z,98697.13
2022-12-18T03:45:16.173Z,98726.75
2022-12-18T03:47:51.553Z,98726.75
2022-12-18T03:50:23.638Z,98720.53
2022-12-18T03:53:18.925Z,98723.87
2022-12-18T03:55:50.396Z,98727.74
2022-12-18T03:58:24.150Z,98731.57
2022-12-18T04:01:15.866Z,98727.69
2022-12-18T04:03:47.636Z,98727.66
2022-12-18T04:06:17.118Z,98726.81
2022-12-18T04:08:46.643Z,98726.81
2022-12-18T04:11:16.584Z,98740.33
2022-12-18T04:13:45.276Z,98740.33
2022-12-18T04:16:14.651Z,98745.95
2022-12-18T04:18:43.485Z,98748.61
2022-12-18T04:21:11.685Z,98755.42
2022-12-18T04:23:39.535Z,98757.84
2022-12-18T04:26:07.954Z,98765.16
2022-12-18T04:28:43.323Z,98765.50
2022-12-18T04:31:11.545Z,98772.63
2022-12-18T04:33:39.714Z,98773.39
2022-12-18T04:36:08.992Z,98777.84
2022-12-18T04:38:36.844Z,98779.73
2022-12-18T04:41:05.973Z,98779.34
2022-12-18T04:43:33.512Z,98783.28
2022-12-18T04:46:08.592Z,98786.41
2022-12-18T04:48:37.546Z,98786.22
2022-12-18T04:51:06.288Z,98795.75
2022-12-18T04:53:34.511Z,98799.58
2022-12-18T04:56:12.880Z,98807.34
2022-12-18T04:58:42.904Z,98813.08
2022-12-18T05:01:12.414Z,98812.89
2022-12-18T05:03:40.789Z,98813.38
2022-12-18T05:06:09.777Z,98814.18
2022-12-18T05:08:37.992Z,98818.92
2022-12-18T05:11:16.313Z,98825.40
2022-12-18T05:13:45.797Z,98830.69
2022-12-18T05:16:14.958Z,98830.25
2022-12-18T05:18:42.745Z,98838.30
2022-12-18T05:21:10.274Z,98840.36
2022-12-18T05:23:38.341Z,98841.69
2022-12-18T05:26:08.271Z,98843.34
2022-12-18T05:28:37.266Z,98858.01
2022-12-18T05:31:05.496Z,98849.85
2022-12-18T05:33:35.736Z,98860.59
2022-12-18T05:36:07.024Z,98850.30
2022-12-18T05:38:37.959Z,98864.36
2022-12-18T05:41:06.470Z,98861.85
2022-12-18T05:43:38.125Z,98867.79
2022-12-18T05:46:09.810Z,98876.31
2022-12-18T05:48:37.380Z,98875.06
2022-12-18T05:51:15.155Z,98875.06
2022-12-18T05:53:43.841Z,98882.45
2022-12-18T05:56:22.177Z,98887.63
2022-12-18T05:58:54.696Z,98893.38
2022-12-18T06:01:26.732Z,98898.98
2022-12-18T06:03:55.545Z,98896.89
2022-12-18T06:06:26.712Z,98901.38
2022-12-18T06:08:55.921Z,98901.38
2022-12-18T06:11:26.753Z,98905.21
2022-12-18T06:13:58.684Z,98909.63
2022-12-18T06:16:27.157Z,98922.64
2022-12-18T06:19:00.724Z,98916.98
2022-12-18T06:21:30.297Z,98927.16
2022-12-18T06:24:00.567Z,98928.16
2022-12-18T06:26:28.759Z,98937.34
2022-12-18T06:28:56.884Z,98935.38
2022-12-18T06:31:26.243Z,98943.06
2022-12-18T06:33:53.830Z,98938.88
2022-12-18T06:36:21.786Z,98938.78
2022-12-18T06:38:49.456Z,98948.53
2022-12-18T06:41:20.774Z,98946.22
2022-12-18T06:43:48.239Z,98946.84
2022-12-18T06:46:17.264Z,98958.29
2022-12-18T06:48:50.711Z,98965.23
2022-12-18T06:51:23.617Z,98963.42
2022-12-18T06:53:51.464Z,98958.48
2022-12-18T06:56:19.227Z,98967.39
2022-12-18T06:58:46.865Z,98975.40
2022-12-18T07:01:16.598Z,98977.98
2022-12-18T07:03:45.486Z,98985.06
2022-12-18T07:06:18.733Z,98986.35
2022-12-18T07:08:50.462Z,98995.08
2022-12-18T07:11:20.099Z,98991.95
2022-12-18T07:13:48.033Z,98989.45
2022-12-18T07:16:24.740Z,99001.47
2022-12-18T07:18:48.772Z,99003.70
2022-12-18T07:21:19.800Z,99014.38
2022-12-18T07:23:48.359Z,99021.62
2022-12-18T07:26:20.080Z,99022.41
2022-12-18T07:28:48.332Z,99035.92
2022-12-18T07:31:21.628Z,99033.16
2022-12-18T07:33:50.727Z,99042.38
2022-12-18T07:36:23.113Z,99046.84
2022-12-18T07:38:52.920Z,99053.25
2022-12-18T07:41:21.053Z,99055.55
2022-12-18T07:43:49.210Z,99055.55
2022-12-18T07:46:17.808Z,99063.03
2022-12-18T07:48:49.956Z,99071.75
2022-12-18T07:51:16.157Z,99068.79
2022-12-18T07:53:44.756Z,99073.22
2022-12-18T07:56:30.857Z,99072.45
2022-12-18T07:58:44.806Z,99083.24
2022-12-18T08:01:15.691Z,99083.24
2022-12-18T08:03:44.682Z,99090.16
2022-12-18T08:06:12.469Z,99090.42
2022-12-18T08:08:41.997Z,99090.42
2022-12-18T08:11:09.541Z,99094.31
2022-12-18T08:13:37.425Z,99102.24
2022-12-18T08:16:08.211Z,99096.00
2022-12-18T08:18:37.865Z,99096.00
2022-12-18T08:21:19.356Z,99102.69
2022-12-18T08:23:49.820Z,99097.79
2022-12-18T08:26:20.893Z,99107.83
2022-12-18T08:28:50.019Z,99117.21
2022-12-18T08:31:19.670Z,99113.86
2022-12-18T08:33:51.598Z,99102.50
2022-12-18T08:36:20.029Z,99107.87
2022-12-18T08:38:47.934Z,99114.11
2022-12-18T08:41:17.807Z,99111.78
2022-12-18T08:44:04.186Z,99115.63
2022-12-18T08:46:41.068Z,99120.16
2022-12-18T08:49:11.417Z,99117.55
2022-12-18T08:51:40.208Z,99123.45
2022-12-18T08:54:13.867Z,99129.69
2022-12-18T08:56:41.280Z,99126.45
2022-12-18T08:59:15.793Z,99129.11
2022-12-18T09:01:40.381Z,99126.45
2022-12-18T09:04:10.460Z,99128.36
2022-12-18T09:06:38.803Z,99120.22
2022-12-18T09:09:07.698Z,99123.50
2022-12-18T09:11:35.508Z,99123.50
2022-12-18T09:14:04.811Z,99124.08
2022-12-18T09:16:35.358Z,99127.59
2022-12-18T09:19:06.064Z,99129.78
2022-12-18T09:21:47.784Z,99129.78
2022-12-18T09:24:14.436Z,99132.39
2022-12-18T09:26:43.219Z,99132.39
2022-12-18T09:29:11.865Z,99131.20
2022-12-18T09:31:40.101Z,99128.25
2022-12-18T09:34:07.743Z,99123.20
2022-12-18T09:36:35.576Z,99133.15
2022-12-18T09:39:08.163Z,99121.00
2022-12-18T09:41:56.252Z,99134.91
2022-12-18T09:44:36.063Z,99131.88
2022-12-18T09:47:18.111Z,99137.43
2022-12-18T09:49:50.688Z,99137.43
2022-12-18T09:52:38.694Z,99138.91
2022-12-18T09:55:14.317Z,99138.91
2022-12-18T09:57:50.146Z,99140.83
2022-12-18T10:00:25.987Z,99141.82
2022-12-18T10:03:04.693Z,99135.08
2022-12-18T10:06:05.262Z,99139.08
2022-12-18T10:08:50.307Z,99133.00
2022-12-18T10:11:43.336Z,99141.73
2022-12-18T10:14:19.121Z,99143.36
2022-12-18T10:17:10.544Z,99137.44
2022-12-18T10:19:48.543Z,99141.44
2022-12-18T10:22:56.156Z,99141.59
2022-12-18T10:25:47.051Z,99138.63
2022-12-18T10:28:18.651Z,99139.50
2022-12-18T10:30:46.479Z,99143.06
2022-12-18T10:33:20.188Z,99139.87
2022-12-18T10:35:54.633Z,99142.02
2022-12-18T10:38:29.418Z,99133.81
2022-12-18T10:41:06.820Z,99133.43
2022-12-18T10:43:37.416Z,99149.81
2022-12-18T10:46:15.168Z,99150.48
2022-12-18T10:48:51.074Z,99149.09
2022-12-18T10:51:33.943Z,99151.73
2022-12-18T10:54:23.826Z,99153.45
2022-12-18T10:56:51.480Z,99149.83
2022-12-18T10:59:19.665Z,99158.64
2022-12-18T11:01:59.321Z,99147.79
2022-12-18T11:04:30.395Z,99147.79
2022-12-18T11:07:07.967Z,99155.36
2022-12-18T11:09:40.975Z,99152.02
2022-12-18T11:12:19.011Z,99152.60
2022-12-18T11:15:00.000Z,99155.79
2022-12-18T11:17:36.028Z,99160.22
2022-12-18T11:20:08.289Z,99160.22
2022-12-18T11:22:38.896Z,99167.64
2022-12-18T11:25:36.171Z,99167.78
2022-12-18T11:28:05.744Z,99169.77
2022-12-18T11:30:37.168Z,99169.77
2022-12-18T11:33:19.330Z,99184.83
2022-12-18T11:35:57.732Z,99179.40
2022-12-18T11:38:33.708Z,99189.41
2022-12-18T11:41:06.858Z,99189.41
2022-12-18T11:43:55.095Z,99176.36
2022-12-18T11:46:33.554Z,99196.27
2022-12-18T11:49:29.335Z,99200.42
2022-12-18T11:52:02.328Z,99200.42
2022-12-18T11:54:29.776Z,99193.75
2022-12-18T11:57:08.767Z,99196.27
2022-12-18T12:00:00.039Z,99183.66
2022-12-18T12:02:53.383Z,99191.32
2022-12-18T12:05:54.221Z,99192.56
2022-12-18T12:08:53.729Z,99200.42
2022-12-18T12:11:38.286Z,99197.61
2022-12-18T12:14:23.258Z,99202.81
2022-12-18T12:17:16.746Z,99203.19
2022-12-18T12:19:55.918Z,99206.00
2022-12-18T12:22:44.061Z,99208.76
2022-12-18T12:25:41.006Z,99204.23
2022-12-18T12:28:59.284Z,99207.52
2022-12-18T12:32:02.656Z,99207.42
2022-12-18T12:34:59.511Z,99207.28
2022-12-18T12:37:40.657Z,99215.28
2022-12-18T12:40:48.810Z,99222.48
2022-12-18T12:43:09.396Z,99221.92
2022-12-18T12:45:48.694Z,99225.86
2022-12-18T12:48:31.037Z,99228.53
2022-12-18T12:51:02.944Z,99224.30
2022-12-18T12:53:35.498Z,99231.44
2022-12-18T12:56:05.823Z,99231.44
2022-12-18T12:59:04.989Z,99242.12
2022-12-18T13:01:56.226Z,99241.22
2022-12-18T13:04:35.742Z,99243.74
2022-12-18T13:07:18.258Z,99246.13
2022-12-18T13:10:21.692Z,99253.09
2022-12-18T13:13:00.776Z,99253.55
2022-12-18T13:16:00.242Z,99250.56
2022-12-18T13:18:29.507Z,99245.31
2022-12-18T13:21:05.754Z,99257.55
2022-12-18T13:23:39.680Z,99263.73
2022-12-18T13:26:15.887Z,99261.56
2022-12-18T13:28:51.418Z,99260.74
2022-12-18T13:31:44.931Z,99267.36
2022-12-18T13:34:27.884Z,99270.00
2022-12-18T13:36:54.666Z,99277.20
2022-12-18T13:39:35.994Z,99270.30
2022-12-18T13:42:14.765Z,99277.72
2022-12-18T13:44:42.836Z,99276.96
2022-12-18T13:47:35.900Z,99276.95
2022-12-18T13:50:28.551Z,99282.86
2022-12-18T13:52:55.541Z,99289.23
2022-12-18T13:55:24.688Z,99287.91
2022-12-18T13:58:05.375Z,99287.77
2022-12-18T14:00:33.750Z,99288.81
2022-12-18T14:03:07.382Z,99294.30
2022-12-18T14:05:38.666Z,99291.20
2022-12-18T14:08:12.343Z,99295.64
2022-12-18T14:10:49.940Z,99296.12
2022-12-18T14:13:26.333Z,99298.18
2022-12-18T14:15:55.117Z,99299.37
2022-12-18T14:18:41.344Z,99301.91
2022-12-18T14:21:28.753Z,99310.23
2022-12-18T14:24:20.038Z,99315.20
2022-12-18T14:26:50.710Z,99309.27
2022-12-18T14:29:31.840Z,99315.95
2022-12-18T14:32:19.098Z,99320.45
2022-12-18T14:34:51.335Z,99323.30
2022-12-18T14:37:27.542Z,99325.50
2022-12-18T14:40:11.055Z,99324.64
2022-12-18T14:42:36.026Z,99327.30
2022-12-18T14:45:43.074Z,99328.50
2022-12-18T14:48:38.162Z,99320.11
2022-12-18T14:51:17.477Z,99329.16
2022-12-18T14:53:53.964Z,99322.94
2022-12-18T14:56:32.535Z,99322.70
2022-12-18T14:59:04.824Z,99322.50
2022-12-18T15:01:38.570Z,99330.86
2022-12-18T15:04:26.667Z,99332.28
2022-12-18T15:07:23.285Z,99336.06
2022-12-18T15:10:21.411Z,99333.70
2022-12-18T15:13:01.103Z,99342.73
2022-12-18T15:15:40.900Z,99346.45
2022-12-18T15:18:12.905Z,99348.23
2022-12-18T15:20:53.609Z,99357.09
2022-12-18T15:23:33.078Z,99354.47
2022-12-18T15:26:04.475Z,99355.89
2022-12-18T15:28:40.709Z,99350.76
2022-12-18T15:31:17.732Z,99361.91
2022-12-18T15:33:59.154Z,99360.13
2022-12-18T15:36:30.238Z,99364.14
2022-12-18T15:39:04.762Z,99367.83
2022-12-18T15:41:28.474Z,99370.82
2022-12-18T15:43:56.300Z,99374.83
2022-12-18T15:46:27.389Z,99378.23
2022-12-18T15:49:02.211Z,99378.38
2022-12-18T15:51:34.592Z,99385.20
2022-12-18T15:54:05.843Z,99391.74
2022-12-18T15:56:51.824Z,99403.30
2022-12-18T15:59:21.790Z,99399.44
2022-12-18T16:01:53.329Z,99405.63
2022-12-18T16:04:22.935Z,99405.39
2022-12-18T16:07:13.771Z,99407.25
2022-12-18T16:09:26.046Z,99412.36
2022-12-18T16:11:50.954Z,99423.86
2022-12-18T16:14:28.272Z,99421.42
2022-12-18T16:17:02.627Z,99421.85
2022-12-18T16:19:30.893Z,99428.24
2022-12-18T16:21:59.825Z,99430.69
2022-12-18T16:24:33.364Z,99432.02
2022-12-18T16:27:01.396Z,99436.64
2022-12-18T16:29:30.324Z,99443.38
2022-12-18T16:32:00.632Z,99447.70
2022-12-18T16:34:35.225Z,99439.46
2022-12-18T16:37:07.645Z,99442.95
2022-12-18T16:39:38.793Z,99439.46
2022-12-18T16:42:14.925Z,99442.37
2022-12-18T16:44:43.737Z,99437.84
2022-12-18T16:47:15.072Z,99441.03
2022-12-18T16:49:40.775Z,99437.02
2022-12-18T16:52:08.754Z,99437.60
2022-12-18T16:54:39.302Z,99434.06
2022-12-18T16:57:06.967Z,99438.66
2022-12-18T16:59:35.792Z,99436.50
2022-12-18T17:02:06.810Z,99435.98
2022-12-18T17:04:35.746Z,99445.33
2022-12-18T17:07:04.176Z,99436.59
2022-12-18T17:09:31.657Z,99439.84
2022-12-18T17:12:02.335Z,99444.15
2022-12-18T17:14:29.289Z,99446.77
2022-12-18T17:17:19.691Z,99451.87
2022-12-18T17:19:26.985Z,99450.68
2022-12-18T17:21:54.709Z,99451.72
2022-12-18T17:24:22.905Z,99451.95
2022-12-18T17:26:50.347Z,99455.88
2022-12-18T17:29:20.945Z,99459.27
2022-12-18T17:31:50.348Z,99469.08
2022-12-18T17:34:18.091Z,99467.42
2022-12-18T17:36:45.678Z,99473.23
2022-12-18T17:39:18.672Z,99464.22
2022-12-18T17:41:47.745Z,99474.38
2022-12-18T17:44:18.808Z,99468.88
2022-12-18T17:46:46.930Z,99467.98
2022-12-18T17:49:14.524Z,99473.84
2022-12-18T17:51:42.528Z,99475.25
2022-12-18T17:54:11.087Z,99478.77
2022-12-18T17:56:39.447Z,99475.95
2022-12-18T17:59:07.323Z,99477.12
2022-12-18T18:01:40.878Z,99472.49
2022-12-18T18:04:05.276Z,99473.54
2022-12-18T18:06:33.411Z,99475.52
2022-12-18T18:09:02.958Z,99476.47
2022-12-18T18:11:49.075Z,99485.20
2022-12-18T18:14:20.790Z,99483.27
2022-12-18T18:16:51.921Z,99483.92
2022-12-18T18:19:23.250Z,99488.13
2022-12-18T18:21:53.518Z,99494.50
2022-12-18T18:24:25.346Z,99493.98
2022-12-18T18:26:55.977Z,99493.46
2022-12-18T18:29:26.925Z,99491.54
2022-12-18T18:31:56.491Z,99489.71
2022-12-18T18:34:27.139Z,99497.30
2022-12-18T18:36:55.205Z,99489.39
2022-12-18T18:39:26.290Z,99495.41
2022-12-18T18:41:54.195Z,99493.04
2022-12-18T18:44:25.812Z,99504.76
2022-12-18T18:46:55.477Z,99509.11
2022-12-18T18:49:26.285Z,99521.73
2022-12-18T18:51:57.656Z,99522.26
2022-12-18T18:54:26.869Z,99522.11
2022-12-18T18:59:26.208Z,99523.33
2022-12-18T19:01:53.463Z,99529.70
2022-12-18T19:04:20.945Z,99538.72
2022-12-18T19:06:48.800Z,99535.63
2022-12-18T19:09:17.270Z,99539.10
2022-12-18T19:12:03.411Z,99545.99
2022-12-18T19:14:31.346Z,99550.60
2022-12-18T19:16:58.582Z,99554.83
2022-12-18T19:19:27.830Z,99558.94
2022-12-18T19:21:55.755Z,99562.48
2022-12-18T19:24:23.109Z,99557.60
2022-12-18T19:26:51.737Z,99559.75
2022-12-18T19:29:20.162Z,99557.60
2022-12-18T19:31:47.997Z,99559.05
2022-12-18T19:34:15.998Z,99553.20
2022-12-18T19:36:43.570Z,99560.78
2022-12-18T19:39:15.741Z,99569.27
2022-12-18T19:41:44.267Z,99560.86
2022-12-18T19:44:14.614Z,99565.04
2022-12-18T19:46:43.357Z,99568.22
2022-12-18T19:49:18.173Z,99577.95
2022-12-18T19:51:44.157Z,99577.84
2022-12-18T19:54:16.770Z,99581.31
2022-12-18T19:56:41.623Z,99580.11
2022-12-18T19:59:09.905Z,99581.78
2022-12-18T20:01:37.756Z,99581.97
2022-12-18T20:04:05.884Z,99573.03
2022-12-18T20:06:49.292Z,99586.48
2022-12-18T20:09:18.685Z,99588.34
2022-12-18T20:11:47.154Z,99588.17
2022-12-18T20:14:16.169Z,99585.62
2022-12-18T20:16:45.779Z,99582.37
2022-12-18T20:19:14.502Z,99590.96
2022-12-18T20:21:43.587Z,99589.95
2022-12-18T20:24:11.778Z,99586.48
2022-12-18T20:26:40.128Z,99581.48
2022-12-18T20:29:07.723Z,99584.77
2022-12-18T20:31:35.111Z,99583.68
2022-12-18T20:34:03.787Z,99588.91
2022-12-18T20:36:34.114Z,99586.75
2022-12-18T20:39:05.358Z,99586.66
2022-12-18T20:41:37.958Z,99594.52
2022-12-18T20:44:23.459Z,99597.28
2022-12-18T20:46:39.943Z,99589.50
2022-12-18T20:49:07.473Z,99595.05
2022-12-18T20:51:35.081Z,99599.14
2022-12-18T20:54:04.750Z,99593.11
2022-12-18T20:56:33.097Z,99600.38
2022-12-18T20:59:01.217Z,99605.70
2022-12-18T21:01:31.658Z,99607.16
2022-12-18T21:04:00.150Z,99607.55
2022-12-18T21:06:28.105Z,99604.87
2022-12-18T21:08:55.961Z,99617.38
2022-12-18T21:11:37.489Z,99617.38
2022-12-18T21:14:22.445Z,99613.78
2022-12-18T21:16:54.286Z,99621.45
2022-12-18T21:19:24.865Z,99610.98
2022-12-18T21:21:55.530Z,99621.42
2022-12-18T21:24:24.296Z,99621.00
2022-12-18T21:26:52.811Z,99621.00
2022-12-18T21:29:23.697Z,99623.03
2022-12-18T21:31:53.835Z,99616.47
2022-12-18T21:34:25.883Z,99629.05
2022-12-18T21:36:55.168Z,99628.53
2022-12-18T21:39:23.133Z,99625.88
2022-12-18T21:42:09.383Z,99629.26
2022-12-18T21:44:41.800Z,99630.16
2022-12-18T21:47:21.820Z,99635.31
2022-12-18T21:49:36.579Z,99635.09
2022-12-18T21:52:04.862Z,99627.53
2022-12-18T21:54:33.453Z,99637.58
2022-12-18T21:57:05.067Z,99637.58
2022-12-18T21:59:38.873Z,99641.20
2022-12-18T22:02:11.626Z,99641.20
2022-12-18T22:04:39.405Z,99651.58
2022-12-18T22:07:07.457Z,99652.42
2022-12-18T22:09:35.005Z,99638.70
2022-12-18T22:12:02.919Z,99633.58
2022-12-18T22:14:30.464Z,99633.38
2022-12-18T22:16:58.272Z,99636.65
2022-12-18T22:19:26.667Z,99643.31
2022-12-18T22:21:54.850Z,99628.45
2022-12-18T22:24:28.736Z,99636.86
2022-12-18T22:27:01.820Z,99638.91
2022-12-18T22:29:45.735Z,99638.91
2022-12-18T22:32:16.080Z,99634.73
2022-12-18T22:34:46.119Z,99638.21
2022-12-18T22:37:14.234Z,99645.47
2022-12-18T22:39:42.240Z,99637.18
2022-12-18T22:42:10.233Z,99643.22
2022-12-18T22:44:38.054Z,99644.77
2022-12-18T22:47:07.314Z,99648.95
2022-12-18T22:49:36.001Z,99641.58
2022-12-18T22:52:05.999Z,99647.62
2022-12-18T22:54:33.756Z,99656.55
2022-12-18T22:57:01.084Z,99653.06
2022-12-18T22:59:28.627Z,99654.70
2022-12-18T23:01:59.178Z,99651.83
2022-12-18T23:04:28.160Z,99650.91
2022-12-18T23:06:57.512Z,99654.90
2022-12-18T23:09:24.913Z,99648.34
2022-12-18T23:11:52.212Z,99650.80
2022-12-18T23:14:20.233Z,99645.77
2022-12-18T23:16:47.686Z,99645.77
2022-12-18T23:19:16.999Z,99647.83
2022-12-18T23:21:44.512Z,99647.93
2022-12-18T23:24:12.103Z,99641.27
2022-12-18T23:26:39.762Z,99638.91
2022-12-18T23:29:07.742Z,99637.58
2022-12-18T23:31:38.799Z,99629.05
2022-12-18T23:34:07.257Z,99629.56
2022-12-18T23:36:45.671Z,99639.20
2022-12-18T23:39:05.297Z,99639.89
2022-12-18T23:41:33.441Z,99633.97
2022-12-18T23:44:00.887Z,99649.64
2022-12-18T23:46:31.697Z,99649.52
2022-12-18T23:49:01.975Z,99653.40
2022-12-18T23:51:30.999Z,99652.49
2022-12-18T23:54:00.353Z,99647.86
2022-12-18T23:56:29.496Z,99653.28
2022-12-18T23:58:57.160Z,99655.94
